Time;durP1;ratioP1;P1;durP2;ratioP2;P2;SDS_P1;SDS_P2;PMS_P1;PMS_P2;Temp;Humidity;BMP_temperature;BMP_pressure;BME280_temperature;BME280_humidity;BME280_pressure;Samples;Min_cycle;Max_cycle;Signal;HPM_P1;HPM_P2
2023/09/21 00:01:18;;;;;;;3.20;3.00;;;22.50;88.40;;;;;;4986609;28;20487;-71
2023/09/21 00:03:48;;;;;;;3.30;3.00;;;22.50;88.40;;;;;;4997333;28;20428;-71
2023/09/21 00:06:19;;;;;;;3.40;3.10;;;22.50;88.40;;;;;;4982916;28;20537;-70
2023/09/21 00:08:48;;;;;;;3.43;3.13;;;22.50;88.30;;;;;;4999301;28;20466;-70
2023/09/21 00:11:14;;;;;;;3.40;3.10;;;22.50;88.30;;;;;;4973005;28;21006;-70
2023/09/21 00:13:42;;;;;;;3.50;3.23;;;22.40;88.20;;;;;;4991734;28;20434;-71
2023/09/21 00:16:11;;;;;;;3.47;2.97;;;22.40;88.10;;;;;;4969222;28;20444;-71
2023/09/21 00:18:43;;;;;;;3.37;3.10;;;22.40;88.20;;;;;;5010302;28;20508;-71
2023/09/21 00:21:09;;;;;;;4.40;3.37;;;22.40;88.30;;;;;;5010922;28;20458;-71
2023/09/21 00:23:38;;;;;;;3.30;3.10;;;22.40;88.20;;;;;;4981070;28;20455;-71
2023/09/21 00:26:04;;;;;;;3.73;3.43;;;22.40;88.30;;;;;;5008491;28;21120;-71
2023/09/21 00:28:30;;;;;;;3.50;3.20;;;22.40;88.20;;;;;;5012081;28;20440;-71
2023/09/21 00:31:02;;;;;;;3.80;3.50;;;22.40;88.10;;;;;;5003003;28;20451;-70
2023/09/21 00:33:33;;;;;;;4.63;3.40;;;22.40;88.10;;;;;;4993681;28;21044;-70
2023/09/21 00:35:59;;;;;;;3.83;3.53;;;22.40;87.90;;;;;;4989125;28;20424;-70
2023/09/21 00:38:26;;;;;;;3.40;3.10;;;22.40;88.00;;;;;;4989392;28;20428;-71
2023/09/21 00:41:03;;;;;;;3.50;3.30;;;22.40;87.90;;;;;;4986135;28;20490;-70
2023/09/21 00:43:35;;;;;;;4.10;3.70;;;22.40;87.90;;;;;;5007698;28;20420;-70
2023/09/21 00:46:04;;;;;;;3.53;3.23;;;22.40;88.00;;;;;;4975053;28;20467;-71
2023/09/21 00:48:38;;;;;;;3.73;3.43;;;22.40;87.90;;;;;;4967422;28;20446;-71
2023/09/21 00:51:09;;;;;;;3.97;3.27;;;22.30;87.80;;;;;;4995190;28;20459;-70
2023/09/21 00:53:39;;;;;;;5.37;3.57;;;22.40;88.10;;;;;;4985460;28;20438;-70
2023/09/21 00:56:11;;;;;;;3.17;2.80;;;22.40;88.10;;;;;;4996266;28;20428;-71
2023/09/21 00:58:44;;;;;;;3.80;3.27;;;22.30;88.00;;;;;;5010755;28;21324;-71
2023/09/21 01:01:23;;;;;;;3.53;3.23;;;22.40;88.10;;;;;;4976095;28;20523;-71
2023/09/21 01:03:55;;;;;;;3.80;3.47;;;22.40;88.10;;;;;;4998556;28;20501;-71
2023/09/21 01:06:23;;;;;;;3.10;2.90;;;22.30;88.00;;;;;;4985203;28;21014;-71
2023/09/21 01:08:50;;;;;;;3.97;3.20;;;22.30;88.10;;;;;;4984639;28;20473;-71
2023/09/21 01:11:16;;;;;;;4.40;3.50;;;22.30;88.00;;;;;;4994898;28;20466;-71
2023/09/21 01:13:43;;;;;;;4.67;3.27;;;22.30;88.00;;;;;;4992644;28;20432;-70
2023/09/21 01:16:13;;;;;;;3.67;3.33;;;22.30;88.10;;;;;;4984956;28;20836;-71
2023/09/21 01:18:42;;;;;;;3.63;3.37;;;22.30;88.10;;;;;;4958942;28;21033;-71
2023/09/21 01:21:13;;;;;;;3.70;3.30;;;22.30;88.20;;;;;;4997220;28;21176;-70
2023/09/21 01:23:46;;;;;;;3.27;2.97;;;22.30;88.10;;;;;;4996323;28;20431;-71
2023/09/21 01:26:16;;;;;;;3.57;3.27;;;22.30;88.10;;;;;;4985000;28;20477;-71
2023/09/21 01:28:47;;;;;;;3.33;3.03;;;22.30;88.10;;;;;;5001214;28;20454;-71
2023/09/21 01:31:18;;;;;;;3.53;3.23;;;22.30;88.10;;;;;;5002674;28;20446;-70
2023/09/21 01:33:47;;;;;;;4.23;3.37;;;22.30;88.20;;;;;;4968363;28;20443;-71
2023/09/21 01:36:18;;;;;;;3.90;3.50;;;22.30;88.20;;;;;;5000239;28;21163;-70
2023/09/21 01:38:44;;;;;;;3.37;3.07;;;22.30;88.20;;;;;;5007079;28;20432;-70
2023/09/21 01:41:16;;;;;;;2.97;2.77;;;22.30;88.20;;;;;;4972481;28;20554;-71
2023/09/21 01:43:44;;;;;;;3.67;3.17;;;22.20;88.10;;;;;;4991552;28;20570;-71
2023/09/21 01:46:18;;;;;;;4.17;3.73;;;22.30;88.20;;;;;;4945760;28;21480;-70
2023/09/21 01:48:51;;;;;;;4.13;3.73;;;22.20;88.30;;;;;;4978742;28;20425;-71
2023/09/21 01:51:23;;;;;;;3.53;3.23;;;22.30;88.40;;;;;;4982051;28;20537;-71
2023/09/21 01:53:49;;;;;;;3.60;3.30;;;22.20;88.20;;;;;;4983568;28;20456;-70
2023/09/21 01:56:15;;;;;;;3.47;3.17;;;22.20;88.10;;;;;;4987728;28;20435;-71
2023/09/21 01:58:41;;;;;;;3.80;3.23;;;22.20;88.10;;;;;;4991573;28;21320;-70
2023/09/21 02:01:10;;;;;;;3.40;3.20;;;22.20;88.10;;;;;;5010604;28;20463;-71
2023/09/21 02:03:36;;;;;;;3.97;3.50;;;22.20;88.10;;;;;;4973159;28;20498;-70
2023/09/21 02:06:02;;;;;;;3.80;3.50;;;22.20;88.10;;;;;;4995181;28;20479;-71
2023/09/21 02:08:28;;;;;;;3.70;3.40;;;22.20;88.10;;;;;;4994029;28;21284;-70
2023/09/21 02:11:00;;;;;;;5.33;3.00;;;22.20;88.00;;;;;;4991374;28;20456;-70
2023/09/21 02:13:26;;;;;;;3.30;3.00;;;22.20;88.10;;;;;;4994182;28;20181;-70
2023/09/21 02:15:52;;;;;;;4.27;3.37;;;22.20;88.00;;;;;;4995826;28;20601;-70
2023/09/21 02:18:21;;;;;;;3.47;3.17;;;22.20;88.00;;;;;;4992688;28;20521;-71
2023/09/21 02:20:50;;;;;;;3.50;3.20;;;22.20;88.10;;;;;;4983263;28;21156;-71
2023/09/21 02:23:17;;;;;;;3.57;3.33;;;22.20;88.10;;;;;;5000084;28;20530;-70
2023/09/21 02:25:43;;;;;;;3.97;3.57;;;22.20;88.00;;;;;;4991318;28;20508;-71
2023/09/21 02:28:12;;;;;;;3.90;3.60;;;22.10;87.80;;;;;;4975045;28;20435;-71
2023/09/21 02:30:48;;;;;;;3.90;3.50;;;22.10;87.90;;;;;;4983790;28;20433;-71
2023/09/21 02:33:18;;;;;;;3.87;3.47;;;22.10;87.80;;;;;;4983813;28;20437;-70
2023/09/21 02:35:47;;;;;;;3.27;3.07;;;22.10;87.80;;;;;;4972083;28;21064;-71
2023/09/21 02:38:13;;;;;;;3.60;3.30;;;22.10;87.80;;;;;;4999085;28;20486;-70
2023/09/21 02:40:45;;;;;;;5.17;3.57;;;22.10;87.80;;;;;;4977221;28;20445;-71
2023/09/21 02:43:15;;;;;;;3.97;3.50;;;22.10;87.70;;;;;;4971383;28;20475;-71
2023/09/21 02:45:44;;;;;;;5.30;3.50;;;22.10;87.80;;;;;;4971700;28;20856;-71
2023/09/21 02:48:10;;;;;;;3.47;3.17;;;22.10;87.80;;;;;;5005661;28;20452;-71
2023/09/21 02:50:36;;;;;;;3.53;3.23;;;22.10;87.70;;;;;;4971714;28;20440;-71
2023/09/21 02:53:08;;;;;;;3.97;3.67;;;22.10;87.80;;;;;;4998590;28;21087;-70
2023/09/21 02:55:38;;;;;;;3.33;3.10;;;22.10;87.70;;;;;;4980260;28;20934;-71
2023/09/21 02:58:14;;;;;;;3.60;3.40;;;22.10;87.70;;;;;;4970229;28;20433;-70
2023/09/21 03:00:49;;;;;;;3.87;3.53;;;22.10;87.70;;;;;;4982264;28;20451;-70
2023/09/21 03:03:17;;;;;;;3.47;3.17;;;22.10;87.70;;;;;;4982886;28;20449;-70
2023/09/21 03:05:49;;;;;;;3.70;3.40;;;22.10;87.70;;;;;;4999175;28;21409;-70
2023/09/21 03:08:16;;;;;;;4.00;3.63;;;22.00;87.60;;;;;;4964638;28;20724;-71
2023/09/21 03:10:47;;;;;;;3.40;3.10;;;22.00;87.50;;;;;;4999380;28;20469;-70
2023/09/21 03:13:18;;;;;;;3.90;3.60;;;22.00;87.60;;;;;;4958395;28;20438;-71
2023/09/21 03:15:53;;;;;;;3.67;3.37;;;22.00;87.50;;;;;;4963666;28;20465;-70
2023/09/21 03:18:20;;;;;;;5.03;3.60;;;22.00;87.50;;;;;;4979499;28;20794;-70
2023/09/21 03:20:52;;;;;;;4.47;3.60;;;22.00;87.40;;;;;;4975435;28;21000;-71
2023/09/21 03:23:23;;;;;;;5.07;3.00;;;22.00;87.50;;;;;;4993571;28;20430;-71
2023/09/21 03:25:53;;;;;;;3.80;3.40;;;22.00;87.50;;;;;;4991213;28;21060;-70
2023/09/21 03:28:22;;;;;;;4.23;3.83;;;22.00;87.30;;;;;;4982439;28;20462;-70
2023/09/21 03:30:53;;;;;;;4.07;3.77;;;22.00;87.50;;;;;;4990777;28;20435;-71
2023/09/21 03:33:24;;;;;;;4.37;4.07;;;22.00;87.40;;;;;;4998476;28;20427;-70
2023/09/21 03:35:51;;;;;;;4.10;3.20;;;22.00;87.40;;;;;;5008633;28;20447;-70
2023/09/21 03:38:21;;;;;;;3.47;3.17;;;22.00;87.50;;;;;;4978406;28;20451;-70
2023/09/21 03:40:49;;;;;;;3.53;3.30;;;22.00;87.40;;;;;;4998602;28;20426;-70
2023/09/21 03:43:18;;;;;;;3.33;3.10;;;22.00;87.30;;;;;;4973561;28;20447;-70
2023/09/21 03:45:46;;;;;;;5.23;4.13;;;22.00;87.50;;;;;;4963879;28;20474;-70
2023/09/21 03:48:13;;;;;;;3.93;3.63;;;22.00;87.40;;;;;;4978609;28;20538;-70
2023/09/21 03:50:41;;;;;;;3.50;3.20;;;22.00;88.30;;;;;;4969802;28;20448;-71
2023/09/21 03:53:11;;;;;;;3.63;3.33;;;22.00;87.60;;;;;;5002779;28;20430;-70
2023/09/21 03:55:39;;;;;;;3.63;3.33;;;21.90;87.30;;;;;;4982306;28;20483;-71
2023/09/21 03:58:07;;;;;;;3.70;3.40;;;22.00;87.50;;;;;;4977873;28;20526;-71
2023/09/21 04:03:07;;;;;;;3.93;3.53;;;21.90;87.50;;;;;;4984946;28;20534;-71
2023/09/21 04:05:40;;;;;;;3.70;3.40;;;21.90;87.60;;;;;;4986728;28;20442;-71
2023/09/21 04:08:07;;;;;;;3.40;3.13;;;21.90;87.60;;;;;;5002615;28;20427;-70
2023/09/21 04:10:36;;;;;;;3.97;3.67;;;21.90;87.60;;;;;;4981238;28;20444;-70
2023/09/21 04:13:03;;;;;;;3.97;3.60;;;21.90;87.60;;;;;;4966395;28;20473;-71
2023/09/21 04:15:31;;;;;;;3.67;3.37;;;21.90;87.60;;;;;;4986027;28;20934;-70
2023/09/21 04:17:59;;;;;;;4.30;3.60;;;21.90;87.60;;;;;;4985712;28;20439;-71
2023/09/21 04:20:25;;;;;;;3.17;2.97;;;21.90;87.60;;;;;;4992477;28;20510;-70
2023/09/21 04:22:53;;;;;;;3.97;3.73;;;21.90;87.50;;;;;;4996064;28;20455;-70
2023/09/21 04:25:19;;;;;;;5.80;3.93;;;21.90;87.70;;;;;;4974164;28;20467;-70
2023/09/21 04:27:49;;;;;;;3.73;3.43;;;21.90;87.70;;;;;;5001897;28;20475;-70
2023/09/21 04:30:25;;;;;;;4.10;3.63;;;21.90;87.70;;;;;;4979041;28;20469;-70
2023/09/21 04:32:55;;;;;;;3.60;3.37;;;21.90;87.60;;;;;;4984307;28;21285;-70
2023/09/21 04:35:22;;;;;;;3.60;3.30;;;21.90;87.70;;;;;;4987077;28;20485;-72
2023/09/21 04:37:56;;;;;;;4.10;3.70;;;21.80;87.70;;;;;;4971554;28;20890;-71
2023/09/21 04:40:26;;;;;;;3.90;3.60;;;21.80;87.60;;;;;;4984477;28;20456;-70
2023/09/21 04:42:54;;;;;;;3.60;3.40;;;21.90;87.80;;;;;;4968549;28;20458;-70
2023/09/21 04:45:22;;;;;;;3.67;3.37;;;21.90;87.80;;;;;;4965522;28;20448;-70
2023/09/21 04:48:00;;;;;;;3.80;3.50;;;21.90;87.80;;;;;;4981575;28;20477;-69
2023/09/21 04:50:30;;;;;;;4.10;3.70;;;21.80;88.50;;;;;;4965900;28;20498;-70
2023/09/21 04:52:56;;;;;;;4.63;3.53;;;21.80;87.70;;;;;;4953679;28;20445;-69
2023/09/21 04:55:22;;;;;;;4.70;3.60;;;21.80;87.70;;;;;;4971380;28;20473;-69
2023/09/21 04:57:51;;;;;;;4.57;4.17;;;21.80;87.40;;;;;;4970927;28;20428;-69
2023/09/21 05:00:19;;;;;;;3.83;3.50;;;21.80;87.50;;;;;;4984876;28;20438;-71
2023/09/21 05:02:47;;;;;;;3.53;2.87;;;21.80;87.60;;;;;;4978319;28;21034;-71
2023/09/21 05:05:20;;;;;;;3.70;3.27;;;21.80;87.60;;;;;;4959206;28;20454;-72
2023/09/21 05:07:48;;;;;;;3.60;3.40;;;21.80;87.70;;;;;;4972413;28;20512;-71
2023/09/21 05:10:16;;;;;;;4.30;3.90;;;21.80;87.70;;;;;;4989569;28;20539;-72
2023/09/21 05:12:46;;;;;;;4.00;3.70;;;21.80;87.70;;;;;;4996414;28;21294;-72
2023/09/21 05:15:17;;;;;;;3.63;3.33;;;21.80;87.70;;;;;;5008883;28;20541;-73
2023/09/21 05:17:43;;;;;;;3.47;3.10;;;21.80;87.80;;;;;;5016250;28;20435;-73
2023/09/21 05:20:09;;;;;;;3.67;3.37;;;21.80;88.60;;;;;;4997665;28;20507;-72
2023/09/21 05:22:42;;;;;;;3.97;3.60;;;21.80;87.90;;;;;;5011141;28;21497;-73
2023/09/21 05:25:09;;;;;;;3.93;3.50;;;21.80;87.80;;;;;;5004886;28;21012;-72
2023/09/21 05:27:36;;;;;;;3.90;3.33;;;21.80;87.80;;;;;;4999528;28;20909;-72
2023/09/21 05:30:04;;;;;;;3.27;3.00;;;21.80;87.90;;;;;;4996537;28;20427;-71
2023/09/21 05:32:33;;;;;;;3.00;2.80;;;21.80;87.80;;;;;;4999934;28;20461;-73
2023/09/21 05:35:06;;;;;;;3.60;3.40;;;21.80;87.80;;;;;;4983364;28;20457;-71
2023/09/21 05:37:34;;;;;;;3.90;3.60;;;21.80;87.90;;;;;;5017895;28;20461;-73
2023/09/21 05:40:05;;;;;;;3.43;3.13;;;21.80;88.00;;;;;;4995925;28;20470;-72
2023/09/21 05:42:34;;;;;;;3.40;3.20;;;21.70;87.80;;;;;;5017413;28;20452;-72
2023/09/21 05:45:00;;;;;;;4.00;3.70;;;21.80;87.90;;;;;;4992144;28;20535;-72
2023/09/21 05:47:26;;;;;;;4.03;3.73;;;21.70;87.90;;;;;;4983169;28;20506;-72
2023/09/21 05:49:56;;;;;;;3.07;2.87;;;21.70;88.00;;;;;;5012428;28;20538;-72
2023/09/21 05:52:24;;;;;;;5.10;2.90;;;21.70;87.90;;;;;;4999047;28;20459;-73
2023/09/21 05:54:50;;;;;;;3.90;3.60;;;21.70;87.90;;;;;;5015012;28;20430;-73
2023/09/21 05:57:16;;;;;;;3.73;3.43;;;21.70;87.90;;;;;;4998951;28;20908;-72
2023/09/21 05:59:42;;;;;;;3.77;3.47;;;21.70;88.00;;;;;;4990930;28;20937;-72
2023/09/21 06:02:13;;;;;;;5.53;3.80;;;21.70;88.10;;;;;;4994579;28;20475;-71
2023/09/21 06:04:42;;;;;;;3.47;3.17;;;21.70;88.00;;;;;;4988991;28;20461;-73
2023/09/21 06:07:09;;;;;;;3.57;3.27;;;21.70;88.00;;;;;;4973070;28;20474;-72
2023/09/21 06:09:37;;;;;;;4.53;3.40;;;21.70;87.90;;;;;;5001326;28;20439;-72
2023/09/21 06:12:11;;;;;;;3.80;3.50;;;21.70;87.90;;;;;;5016580;28;20435;-71
2023/09/21 06:14:38;;;;;;;4.10;3.40;;;21.70;87.90;;;;;;5000876;28;20436;-72
2023/09/21 06:17:06;;;;;;;4.40;3.50;;;21.70;88.00;;;;;;4990407;28;21508;-71
2023/09/21 06:19:37;;;;;;;6.13;3.50;;;21.70;88.00;;;;;;5009893;28;20803;-71
2023/09/21 06:22:06;;;;;;;4.10;3.70;;;21.70;88.10;;;;;;4957368;28;20458;-71
2023/09/21 06:24:32;;;;;;;4.03;3.60;;;21.70;88.20;;;;;;5010024;28;20439;-72
2023/09/21 06:26:58;;;;;;;4.23;3.83;;;21.70;88.20;;;;;;4988963;28;20984;-71
2023/09/21 06:29:24;;;;;;;3.90;3.60;;;21.70;88.30;;;;;;5016398;28;20435;-71
2023/09/21 06:32:00;;;;;;;3.80;3.47;;;21.70;88.30;;;;;;4996322;28;20460;-71
2023/09/21 06:34:26;;;;;;;3.60;3.30;;;21.70;88.40;;;;;;5012508;28;20439;-71
2023/09/21 06:36:52;;;;;;;4.27;3.50;;;21.60;88.30;;;;;;5008269;28;20533;-72
2023/09/21 06:39:21;;;;;;;4.83;3.57;;;21.60;88.40;;;;;;5011829;28;20430;-71
2023/09/21 06:41:49;;;;;;;5.77;3.03;;;21.60;88.40;;;;;;4993281;28;20447;-75
2023/09/21 06:44:18;;;;;;;4.90;4.00;;;21.60;88.50;;;;;;5014401;28;20921;-72
2023/09/21 06:46:49;;;;;;;4.57;3.40;;;21.60;88.60;;;;;;5008547;28;20470;-73
2023/09/21 06:49:23;;;;;;;3.87;3.60;;;21.60;88.60;;;;;;4994442;28;20480;-72
2023/09/21 06:51:49;;;;;;;11.90;3.40;;;21.60;88.60;;;;;;4991091;28;20508;-71
2023/09/21 06:54:16;;;;;;;4.57;3.40;;;21.60;88.60;;;;;;5019840;28;20432;-71
2023/09/21 06:56:44;;;;;;;4.93;3.33;;;21.60;88.60;;;;;;4978125;28;20889;-71
2023/09/21 06:59:12;;;;;;;3.40;3.10;;;21.60;88.70;;;;;;4984287;28;20995;-73
2023/09/21 07:01:39;;;;;;;3.70;3.07;;;21.60;88.70;;;;;;5016404;28;20967;-72
2023/09/21 07:04:05;;;;;;;3.80;3.50;;;21.60;88.80;;;;;;4986728;28;20517;-72
2023/09/21 07:06:35;;;;;;;3.73;3.43;;;21.60;88.80;;;;;;5013081;28;20881;-72
2023/09/21 07:09:06;;;;;;;3.80;3.50;;;21.60;88.90;;;;;;5005593;28;20435;-71
2023/09/21 07:11:33;;;;;;;5.20;3.43;;;21.60;88.90;;;;;;4970453;28;20457;-71
2023/09/21 07:13:59;;;;;;;3.27;3.07;;;21.60;89.00;;;;;;5006168;28;20950;-72
2023/09/21 07:16:31;;;;;;;3.43;3.23;;;21.60;89.00;;;;;;4990526;28;20450;-72
2023/09/21 07:18:59;;;;;;;3.50;3.20;;;21.60;89.10;;;;;;4987785;28;20443;-72
2023/09/21 07:21:26;;;;;;;3.50;3.20;;;21.60;89.10;;;;;;4995530;28;20731;-72
2023/09/21 07:23:57;;;;;;;7.17;3.87;;;21.60;89.10;;;;;;4982890;28;20207;-72
2023/09/21 07:26:26;;;;;;;4.37;3.47;;;21.60;89.90;;;;;;4980977;28;20528;-72
2023/09/21 07:28:52;;;;;;;3.87;3.40;;;21.60;89.20;;;;;;4983449;28;20446;-71
2023/09/21 07:31:20;;;;;;;3.23;2.90;;;21.60;89.20;;;;;;4996638;28;20454;-71
2023/09/21 07:33:52;;;;;;;4.00;3.70;;;21.60;89.20;;;;;;4994464;28;20834;-72
2023/09/21 07:36:20;;;;;;;3.73;3.43;;;21.60;89.20;;;;;;4979909;28;20966;-72
2023/09/21 07:38:49;;;;;;;3.67;3.37;;;21.70;89.40;;;;;;4995673;28;20538;-71
2023/09/21 07:41:15;;;;;;;3.43;3.23;;;21.70;90.10;;;;;;4996553;28;20953;-72
2023/09/21 07:43:41;;;;;;;4.40;4.00;;;21.60;89.40;;;;;;5003875;28;20490;-72
2023/09/21 07:46:07;;;;;;;3.50;3.20;;;21.70;90.10;;;;;;4997205;28;20625;-71
2023/09/21 07:48:33;;;;;;;3.70;3.40;;;21.60;89.50;;;;;;4998295;28;20435;-71
2023/09/21 07:51:06;;;;;;;4.60;3.77;;;21.70;89.70;;;;;;4983146;28;20457;-72
2023/09/21 07:53:35;;;;;;;4.47;3.60;;;21.70;89.60;;;;;;4995270;28;20436;-72
2023/09/21 07:56:04;;;;;;;4.37;3.40;;;21.70;89.80;;;;;;4984308;28;20521;-71
2023/09/21 07:58:32;;;;;;;4.20;3.47;;;21.70;89.70;;;;;;4997453;28;21270;-71
2023/09/21 08:01:01;;;;;;;4.03;3.60;;;21.70;90.30;;;;;;5010577;28;21403;-72
2023/09/21 08:03:27;;;;;;;3.73;3.33;;;21.70;89.90;;;;;;4981247;28;20529;-72
2023/09/21 08:05:55;;;;;;;4.03;3.63;;;21.70;89.90;;;;;;5000896;28;20471;-68
2023/09/21 08:08:24;;;;;;;4.93;3.60;;;21.70;90.00;;;;;;5002405;28;20500;-73
2023/09/21 08:10:54;;;;;;;6.57;3.53;;;21.70;90.00;;;;;;4986584;28;20428;-71
2023/09/21 08:13:23;;;;;;;3.60;3.30;;;21.70;90.10;;;;;;4970012;28;20580;-72
2023/09/21 08:15:52;;;;;;;4.60;3.40;;;21.70;90.00;;;;;;4993736;28;20455;-74
2023/09/21 08:18:23;;;;;;;3.90;3.60;;;21.70;90.10;;;;;;5000023;28;21085;-74
2023/09/21 08:20:52;;;;;;;3.87;3.57;;;21.80;90.20;;;;;;4982345;28;20962;-72
2023/09/21 08:23:18;;;;;;;3.63;3.33;;;21.80;90.20;;;;;;4976363;28;20427;-71
2023/09/21 08:25:49;;;;;;;4.50;4.10;;;21.80;90.30;;;;;;4965637;28;21111;-72
2023/09/21 08:28:17;;;;;;;3.60;3.30;;;21.80;90.30;;;;;;5000862;28;20466;-72
2023/09/21 08:30:43;;;;;;;4.43;4.03;;;21.80;90.30;;;;;;4978222;28;21103;-72
2023/09/21 08:33:17;;;;;;;4.50;3.73;;;21.80;90.40;;;;;;4993321;28;20458;-72
2023/09/21 08:35:45;;;;;;;3.60;3.30;;;21.80;90.40;;;;;;5007686;28;21265;-72
2023/09/21 08:38:12;;;;;;;4.10;3.70;;;21.80;90.40;;;;;;5000486;28;20431;-72
2023/09/21 08:40:38;;;;;;;7.33;3.90;;;21.80;90.40;;;;;;5011688;28;20946;-72
2023/09/21 08:43:04;;;;;;;8.83;3.47;;;21.90;90.50;;;;;;5016360;28;20423;-72
2023/09/21 08:45:31;;;;;;;4.17;3.57;;;21.90;90.60;;;;;;4985485;28;20461;-72
2023/09/21 08:47:57;;;;;;;4.23;3.83;;;21.90;90.60;;;;;;5016266;28;20472;-71
2023/09/21 08:50:26;;;;;;;4.37;3.60;;;21.90;90.60;;;;;;4992851;28;20438;-72
2023/09/21 08:52:54;;;;;;;4.37;4.00;;;21.90;90.70;;;;;;4956574;28;20463;-72
2023/09/21 08:55:25;;;;;;;4.73;4.40;;;22.00;90.90;;;;;;4992759;28;20535;-72
2023/09/21 08:57:53;;;;;;;4.73;4.03;;;22.00;90.90;;;;;;4980087;28;20497;-72
2023/09/21 09:00:21;;;;;;;4.53;4.10;;;22.00;90.90;;;;;;5017979;28;20462;-72
2023/09/21 09:02:49;;;;;;;5.43;3.63;;;22.00;90.90;;;;;;4977770;28;20959;-72
2023/09/21 09:05:16;;;;;;;3.90;3.60;;;22.00;90.80;;;;;;5000399;28;20522;-72
2023/09/21 09:07:42;;;;;;;3.97;3.67;;;22.10;90.90;;;;;;5018486;28;20470;-72
2023/09/21 09:10:12;;;;;;;4.13;3.83;;;22.10;90.80;;;;;;4991787;28;20450;-72
2023/09/21 09:12:39;;;;;;;3.97;3.67;;;22.10;90.80;;;;;;4983937;28;21059;-72
2023/09/21 09:15:08;;;;;;;4.63;4.10;;;22.10;90.90;;;;;;5014348;28;20442;-72
2023/09/21 09:17:39;;;;;;;4.10;3.70;;;22.10;90.90;;;;;;4994464;28;21331;-72
2023/09/21 09:20:06;;;;;;;4.50;4.10;;;22.20;90.90;;;;;;4997456;28;21017;-72
2023/09/21 09:22:37;;;;;;;4.37;3.97;;;22.20;90.90;;;;;;5014968;28;21051;-73
2023/09/21 09:25:09;;;;;;;4.13;3.83;;;22.20;90.90;;;;;;5012465;28;20435;-72
2023/09/21 09:27:35;;;;;;;3.83;3.53;;;22.20;90.90;;;;;;4985347;28;20478;-72
2023/09/21 09:30:08;;;;;;;4.47;3.73;;;22.20;90.90;;;;;;4999879;28;20431;-72
2023/09/21 09:32:41;;;;;;;4.70;4.33;;;22.30;91.00;;;;;;4979004;28;20995;-73
2023/09/21 09:35:14;;;;;;;4.40;4.00;;;22.20;90.90;;;;;;4996446;28;20439;-72
2023/09/21 09:37:48;;;;;;;3.97;3.57;;;22.30;91.00;;;;;;5013806;28;21131;-73
2023/09/21 09:40:23;;;;;;;4.77;4.27;;;22.30;91.10;;;;;;4971234;28;21093;-71
2023/09/21 09:42:52;;;;;;;3.80;3.50;;;22.30;91.00;;;;;;5016730;28;20455;-72
2023/09/21 09:45:24;;;;;;;4.10;3.53;;;22.30;91.00;;;;;;5017498;28;20454;-71
2023/09/21 09:47:57;;;;;;;4.80;4.00;;;22.30;91.10;;;;;;5009790;28;20478;-72
2023/09/21 09:50:27;;;;;;;4.00;3.57;;;22.40;91.10;;;;;;4972203;28;20854;-71
2023/09/21 09:53:05;;;;;;;3.87;3.40;;;22.30;91.10;;;;;;4996070;28;21120;-72
2023/09/21 09:55:42;;;;;;;3.60;3.33;;;22.40;91.10;;;;;;5016704;28;20433;-71
2023/09/21 09:58:15;;;;;;;3.73;3.50;;;22.40;91.20;;;;;;4999691;28;20993;-72
2023/09/21 10:00:47;;;;;;;3.50;3.30;;;22.40;91.10;;;;;;4991368;28;21015;-72
2023/09/21 10:03:17;;;;;;;3.80;3.50;;;22.40;91.10;;;;;;4968884;28;20470;-71
2023/09/21 10:05:46;;;;;;;4.10;3.80;;;22.40;91.10;;;;;;5012595;28;20450;-71
2023/09/21 10:08:12;;;;;;;5.27;4.00;;;22.40;91.10;;;;;;4973093;28;20429;-72
2023/09/21 10:10:47;;;;;;;3.80;3.50;;;22.40;91.10;;;;;;5011057;28;20423;-72
2023/09/21 10:13:16;;;;;;;4.40;4.10;;;22.50;91.20;;;;;;4971490;28;20455;-73
2023/09/21 10:15:48;;;;;;;4.63;4.00;;;22.50;91.20;;;;;;5014518;28;20776;-72
2023/09/21 10:18:50;;;;;;;4.20;3.90;;;22.50;91.10;;;;;;5002943;28;20984;-70
2023/09/21 10:21:22;;;;;;;3.87;3.57;;;22.50;91.20;;;;;;4955101;28;20912;-70
2023/09/21 10:24:06;;;;;;;4.27;3.73;;;22.50;91.20;;;;;;4979666;28;20442;-72
2023/09/21 10:26:38;;;;;;;4.15;3.85;;;22.50;91.10;;;;;;4957987;28;1146946;-70
2023/09/21 10:29:12;;;;;;;4.83;3.53;;;22.60;91.50;;;;;;4979767;28;20192;-70
2023/09/21 10:31:39;;;;;;;4.10;3.50;;;22.60;91.30;;;;;;4994836;28;20470;-72
2023/09/21 10:34:13;;;;;;;4.83;3.80;;;22.60;91.30;;;;;;5006142;28;20733;-72
2023/09/21 10:36:50;;;;;;;4.10;3.70;;;22.60;91.30;;;;;;4987318;28;20439;-73
2023/09/21 10:39:25;;;;;;;4.07;3.77;;;22.60;91.30;;;;;;4982878;28;20451;-74
2023/09/21 10:41:56;;;;;;;3.87;3.47;;;22.60;91.40;;;;;;4979378;28;20614;-74
2023/09/21 10:44:55;;;;;;;4.00;3.40;;;22.60;91.40;;;;;;4982476;28;21318;-72
2023/09/21 10:47:51;;;;;;;4.07;3.70;;;22.60;91.40;;;;;;4953808;28;20471;-75
2023/09/21 10:50:21;;;;;;;4.33;3.50;;;22.60;91.40;;;;;;4997785;28;20430;-74
2023/09/21 10:52:52;;;;;;;4.50;3.70;;;22.60;91.40;;;;;;4995650;28;21068;-73
2023/09/21 10:55:21;;;;;;;6.03;3.77;;;22.60;91.40;;;;;;5004967;28;20443;-74
2023/09/21 10:57:49;;;;;;;4.23;3.90;;;22.70;91.50;;;;;;4974919;28;20468;-74
2023/09/21 11:00:17;;;;;;;3.93;3.60;;;22.70;91.50;;;;;;4991542;28;20487;-75
2023/09/21 11:02:46;;;;;;;4.20;3.63;;;22.70;91.50;;;;;;4998034;28;20761;-75
2023/09/21 11:05:16;;;;;;;4.10;3.80;;;22.70;91.40;;;;;;4993131;28;20435;-74
2023/09/21 11:07:46;;;;;;;4.20;3.90;;;22.70;91.40;;;;;;4965219;28;20486;-74
2023/09/21 11:10:15;;;;;;;4.30;3.90;;;22.70;91.40;;;;;;4962452;28;20490;-73
2023/09/21 11:12:45;;;;;;;4.50;4.03;;;22.80;91.40;;;;;;5010175;28;20442;-74
2023/09/21 11:15:16;;;;;;;4.10;3.70;;;22.80;91.40;;;;;;4988515;28;20419;-73
2023/09/21 11:17:44;;;;;;;3.77;3.43;;;22.80;91.40;;;;;;4996318;28;20830;-74
2023/09/21 11:20:19;;;;;;;4.37;3.97;;;22.80;91.30;;;;;;5014398;28;20423;-73
2023/09/21 11:22:48;;;;;;;3.80;3.50;;;22.80;91.30;;;;;;4971367;28;20457;-74
2023/09/21 11:25:16;;;;;;;4.67;4.27;;;22.80;91.30;;;;;;4994364;28;20469;-75
2023/09/21 11:27:42;;;;;;;3.87;3.57;;;22.80;91.30;;;;;;4978048;28;20468;-75
2023/09/21 11:30:13;;;;;;;3.70;3.40;;;22.80;91.20;;;;;;5003344;28;20443;-75
2023/09/21 11:32:45;;;;;;;4.70;3.47;;;22.80;91.20;;;;;;4980371;28;20460;-74
2023/09/21 11:35:18;;;;;;;3.63;3.33;;;22.80;91.20;;;;;;4962610;28;20731;-75
2023/09/21 11:37:51;;;;;;;3.70;3.47;;;22.80;91.50;;;;;;4971249;28;20432;-74
2023/09/21 11:40:23;;;;;;;3.60;3.30;;;22.80;91.20;;;;;;4954004;28;20515;-74
2023/09/21 11:42:57;;;;;;;3.60;3.30;;;22.80;91.10;;;;;;4987053;28;20464;-74
2023/09/21 11:45:28;;;;;;;5.27;3.93;;;22.80;91.10;;;;;;4974399;28;20443;-75
2023/09/21 11:47:59;;;;;;;3.70;3.50;;;22.80;91.10;;;;;;4994940;28;20892;-74
2023/09/21 11:50:34;;;;;;;4.13;3.83;;;22.90;91.10;;;;;;4964711;28;20485;-75
2023/09/21 11:53:07;;;;;;;3.67;3.37;;;22.80;91.10;;;;;;5009369;28;20965;-73
2023/09/21 11:55:40;;;;;;;3.90;3.60;;;22.90;91.10;;;;;;4968922;28;20515;-74
2023/09/21 11:58:11;;;;;;;4.00;3.67;;;22.80;91.00;;;;;;5005989;28;20530;-74
2023/09/21 12:01:12;;;;;;;4.83;4.33;;;22.90;91.10;;;;;;4988758;28;20439;-74
2023/09/21 12:03:39;;;;;;;3.07;2.83;;;22.90;91.10;;;;;;5004064;28;20441;-74
2023/09/21 12:06:06;;;;;;;4.40;3.87;;;22.90;91.10;;;;;;5011226;28;21246;-74
2023/09/21 12:08:34;;;;;;;3.90;3.50;;;22.90;91.10;;;;;;4973533;28;20530;-74
2023/09/21 12:11:01;;;;;;;5.07;4.67;;;22.90;91.20;;;;;;4990214;28;20468;-73
2023/09/21 12:13:27;;;;;;;6.47;3.70;;;22.90;91.10;;;;;;5014738;28;20427;-74
2023/09/21 12:15:55;;;;;;;4.03;3.73;;;22.90;91.10;;;;;;4988359;28;20522;-75
2023/09/21 12:18:22;;;;;;;4.20;3.33;;;22.90;91.10;;;;;;4946359;28;20436;-74
2023/09/21 12:20:56;;;;;;;3.63;3.20;;;22.90;91.10;;;;;;4971235;28;20564;-73
2023/09/21 12:23:26;;;;;;;5.03;3.80;;;22.90;91.10;;;;;;5010633;28;20480;-71
2023/09/21 12:25:52;;;;;;;4.13;3.83;;;22.90;91.10;;;;;;5010430;28;20441;-72
2023/09/21 12:28:19;;;;;;;4.20;3.80;;;22.90;91.00;;;;;;5000931;28;20957;-72
2023/09/21 12:30:47;;;;;;;4.00;3.70;;;22.90;91.10;;;;;;4999690;28;20447;-73
2023/09/21 12:33:17;;;;;;;4.60;4.20;;;22.90;91.10;;;;;;4973052;28;20453;-72
2023/09/21 12:35:43;;;;;;;4.40;4.10;;;22.90;91.10;;;;;;4984287;28;21083;-72
2023/09/21 12:38:12;;;;;;;4.50;4.10;;;22.90;91.10;;;;;;4976368;28;20477;-72
2023/09/21 12:40:42;;;;;;;4.60;3.80;;;22.90;91.10;;;;;;4999114;28;20436;-72
2023/09/21 12:43:11;;;;;;;3.93;3.63;;;22.90;91.10;;;;;;5006949;28;20452;-73
2023/09/21 12:45:39;;;;;;;5.83;3.67;;;22.90;91.10;;;;;;5009076;28;20440;-73
2023/09/21 12:48:08;;;;;;;3.97;3.67;;;22.90;91.10;;;;;;4960832;28;20904;-72
2023/09/21 12:50:37;;;;;;;4.47;3.47;;;22.90;91.10;;;;;;4994806;28;20454;-72
2023/09/21 12:53:05;;;;;;;4.07;3.70;;;22.90;91.10;;;;;;4993397;28;21320;-73
2023/09/21 12:55:34;;;;;;;3.40;3.20;;;22.90;91.10;;;;;;4977974;28;20535;-73
2023/09/21 12:58:00;;;;;;;3.63;3.33;;;22.90;91.10;;;;;;5009648;28;20490;-72
2023/09/21 13:00:27;;;;;;;4.80;4.47;;;22.50;90.90;;;;;;5018642;28;20431;-72